createdAt,value
2023-09-19T00:02:23.025Z,18.33
2023-09-19T00:04:50.159Z,18.29
2023-09-19T00:07:17.283Z,18.15
2023-09-19T00:09:44.294Z,18.06
2023-09-19T00:12:12.004Z,18.02
2023-09-19T00:14:38.956Z,17.89
2023-09-19T00:17:06.041Z,17.87
2023-09-19T00:19:33.467Z,17.81
2023-09-19T00:22:00.545Z,17.82
2023-09-19T00:24:27.678Z,17.74
2023-09-19T00:26:54.678Z,17.71
2023-09-19T00:29:21.800Z,17.66
2023-09-19T00:31:48.786Z,17.65
2023-09-19T00:34:16.022Z,17.65
2023-09-19T00:36:43.061Z,17.63
2023-09-19T00:39:10.377Z,17.55
2023-09-19T00:41:37.376Z,17.53
2023-09-19T00:44:04.444Z,17.50
2023-09-19T00:46:33.119Z,17.52
2023-09-19T00:49:00.348Z,17.48
2023-09-19T00:51:28.061Z,17.47
2023-09-19T00:53:55.857Z,17.47
2023-09-19T00:56:25.006Z,17.47
2023-09-19T00:58:53.480Z,17.46
2023-09-19T01:01:21.148Z,17.46
2023-09-19T01:03:48.556Z,17.46
2023-09-19T01:06:16.198Z,17.44
2023-09-19T01:08:43.236Z,17.39
2023-09-19T01:11:31.714Z,17.41
2023-09-19T01:14:04.059Z,17.37
2023-09-19T01:16:34.613Z,17.35
2023-09-19T01:19:23.730Z,17.34
2023-09-19T01:22:10.336Z,17.28
2023-09-19T01:25:09.441Z,17.20
2023-09-19T01:28:03.557Z,17.14
2023-09-19T01:30:34.486Z,17.11
2023-09-19T01:33:07.688Z,17.01
2023-09-19T01:35:34.990Z,16.84
2023-09-19T01:38:02.310Z,16.71
2023-09-19T01:40:29.456Z,16.66
2023-09-19T01:43:04.333Z,16.55
2023-09-19T01:45:43.919Z,16.53
2023-09-19T01:48:42.190Z,16.51
2023-09-19T01:51:16.080Z,16.43
2023-09-19T01:54:11.240Z,16.42
2023-09-19T01:56:45.793Z,16.41
2023-09-19T01:59:17.397Z,16.40
2023-09-19T02:01:47.810Z,16.44
2023-09-19T02:04:16.636Z,16.43
2023-09-19T02:06:44.335Z,16.43
2023-09-19T02:09:11.353Z,16.44
2023-09-19T02:11:38.252Z,16.43
2023-09-19T02:14:05.515Z,16.42
2023-09-19T02:16:32.529Z,16.42
2023-09-19T02:18:59.584Z,16.46
2023-09-19T02:21:26.607Z,16.39
2023-09-19T02:23:53.851Z,16.41
2023-09-19T02:26:20.863Z,16.42
2023-09-19T02:28:48.528Z,16.43
2023-09-19T02:31:15.695Z,16.46
2023-09-19T02:33:44.136Z,16.49
2023-09-19T02:36:11.164Z,16.46
2023-09-19T02:38:38.304Z,16.51
2023-09-19T02:41:05.396Z,16.52
2023-09-19T02:43:32.601Z,16.52
2023-09-19T02:45:59.692Z,16.56
2023-09-19T02:48:27.796Z,16.63
2023-09-19T02:50:54.892Z,16.62
2023-09-19T02:53:21.854Z,16.63
2023-09-19T02:55:49.111Z,16.65
2023-09-19T02:58:16.416Z,16.67
2023-09-19T03:00:43.884Z,16.68
2023-09-19T03:03:11.168Z,16.68
2023-09-19T03:05:38.216Z,16.66
2023-09-19T03:08:05.336Z,16.60
2023-09-19T03:10:32.565Z,16.62
2023-09-19T03:13:00.410Z,16.62
2023-09-19T03:15:27.541Z,16.63
2023-09-19T03:17:54.701Z,16.64
2023-09-19T03:20:25.151Z,16.57
2023-09-19T03:22:52.419Z,16.60
2023-09-19T03:25:21.780Z,16.62
2023-09-19T03:27:54.163Z,16.58
2023-09-19T03:30:23.720Z,16.55
2023-09-19T03:32:52.135Z,16.59
2023-09-19T03:35:20.247Z,16.65
2023-09-19T03:37:48.812Z,16.63
2023-09-19T03:40:16.208Z,16.67
2023-09-19T03:42:43.688Z,16.66
2023-09-19T03:45:13.970Z,16.69
2023-09-19T03:47:46.564Z,16.66
2023-09-19T03:50:13.745Z,16.61
2023-09-19T03:52:40.675Z,16.60
2023-09-19T03:55:09.176Z,16.60
2023-09-19T03:57:39.332Z,16.59
2023-09-19T04:00:06.956Z,16.57
2023-09-19T04:02:41.165Z,16.58
2023-09-19T04:05:09.131Z,16.60
2023-09-19T04:07:36.909Z,16.65
2023-09-19T04:10:04.175Z,16.66
2023-09-19T04:12:31.780Z,16.67
2023-09-19T04:14:59.147Z,16.65
2023-09-19T04:17:26.694Z,16.62
2023-09-19T04:19:54.147Z,16.63
2023-09-19T04:22:21.203Z,16.67
2023-09-19T04:24:48.275Z,16.68
2023-09-19T04:27:15.428Z,16.69
2023-09-19T04:29:43.868Z,16.72
2023-09-19T04:32:11.121Z,16.69
2023-09-19T04:34:38.553Z,16.70
2023-09-19T04:37:05.566Z,16.68
2023-09-19T04:39:32.472Z,16.72
2023-09-19T04:42:00.253Z,16.76
2023-09-19T04:44:27.338Z,16.71
2023-09-19T04:46:54.419Z,16.70
2023-09-19T04:49:21.795Z,16.73
2023-09-19T04:51:48.811Z,16.71
2023-09-19T04:54:16.265Z,16.72
2023-09-19T04:56:43.284Z,16.71
2023-09-19T04:59:10.379Z,16.70
2023-09-19T05:01:37.873Z,16.65
2023-09-19T05:04:05.145Z,16.58
2023-09-19T05:06:32.268Z,16.58
2023-09-19T05:08:59.349Z,16.52
2023-09-19T05:11:26.616Z,16.46
2023-09-19T05:13:53.955Z,16.43
2023-09-19T05:16:21.350Z,16.42
2023-09-19T05:18:48.620Z,16.39
2023-09-19T05:21:17.144Z,16.41
2023-09-19T05:23:44.038Z,16.38
2023-09-19T05:26:11.172Z,16.30
2023-09-19T05:28:38.145Z,16.28
2023-09-19T05:31:05.270Z,16.26
2023-09-19T05:33:32.311Z,16.25
2023-09-19T05:35:59.760Z,16.21
2023-09-19T05:38:26.868Z,16.25
2023-09-19T05:40:54.125Z,16.19
2023-09-19T05:43:21.250Z,16.19
2023-09-19T05:45:49.164Z,16.16
2023-09-19T05:48:16.610Z,16.14
2023-09-19T05:50:44.163Z,16.17
2023-09-19T05:53:11.505Z,16.16
2023-09-19T05:55:38.542Z,16.19
2023-09-19T05:58:05.772Z,16.17
2023-09-19T06:00:32.752Z,16.20
2023-09-19T06:03:01.253Z,16.22
2023-09-19T06:05:29.388Z,16.22
2023-09-19T06:07:56.440Z,16.23
2023-09-19T06:10:23.402Z,16.21
2023-09-19T06:12:51.216Z,16.20
2023-09-19T06:15:18.406Z,16.28
2023-09-19T06:17:49.968Z,16.26
2023-09-19T06:20:18.266Z,16.28
2023-09-19T06:22:46.590Z,16.26
2023-09-19T06:25:15.268Z,16.25
2023-09-19T06:27:43.003Z,16.30
2023-09-19T06:30:10.816Z,16.30
2023-09-19T06:32:37.868Z,16.30
2023-09-19T06:35:06.072Z,16.34
2023-09-19T06:37:33.072Z,16.40
2023-09-19T06:39:59.946Z,16.44
2023-09-19T06:45:17.350Z,16.51
2023-09-19T06:47:44.695Z,16.52
2023-09-19T06:50:11.910Z,16.58
2023-09-19T06:52:38.938Z,16.57
2023-09-19T06:55:06.163Z,16.60
2023-09-19T06:57:33.081Z,16.66
2023-09-19T07:00:00.786Z,16.78
2023-09-19T07:02:27.781Z,16.80
2023-09-19T07:04:54.976Z,16.87
2023-09-19T07:07:22.066Z,16.95
2023-09-19T07:09:51.882Z,17.03
2023-09-19T07:12:21.458Z,17.10
2023-09-19T07:14:49.283Z,17.13
2023-09-19T07:17:16.901Z,17.21
2023-09-19T07:19:43.907Z,17.24
2023-09-19T07:22:12.249Z,17.34
2023-09-19T07:24:39.313Z,17.33
2023-09-19T07:27:06.315Z,17.37
2023-09-19T07:29:33.424Z,17.37
2023-09-19T07:32:00.454Z,17.44
2023-09-19T07:34:27.590Z,17.54
2023-09-19T07:36:54.621Z,17.61
2023-09-19T07:39:23.711Z,17.63
2023-09-19T07:41:51.342Z,17.67
2023-09-19T07:44:18.862Z,17.79
2023-09-19T07:46:45.991Z,17.90
2023-09-19T07:49:13.211Z,17.93
2023-09-19T07:51:40.366Z,17.99
2023-09-19T07:54:07.404Z,18.06
2023-09-19T07:56:34.360Z,18.15
2023-09-19T07:59:01.341Z,18.18
2023-09-19T08:01:28.635Z,18.27
2023-09-19T08:03:55.968Z,18.28
2023-09-19T08:06:23.563Z,18.33
2023-09-19T08:08:53.955Z,18.42
2023-09-19T08:11:20.904Z,18.41
2023-09-19T08:13:48.460Z,18.45
2023-09-19T08:16:16.793Z,18.53
2023-09-19T08:18:43.852Z,18.52
2023-09-19T08:21:14.120Z,18.57
2023-09-19T08:23:43.338Z,18.55
2023-09-19T08:26:10.813Z,18.56
2023-09-19T08:28:39.114Z,18.56
2023-09-19T08:31:07.013Z,18.61
2023-09-19T08:33:35.134Z,18.61
2023-09-19T08:36:02.743Z,18.60
2023-09-19T08:38:30.710Z,18.59
2023-09-19T08:41:02.021Z,18.59
2023-09-19T08:43:29.149Z,18.59
2023-09-19T08:46:15.989Z,18.59
2023-09-19T08:49:04.268Z,18.59
2023-09-19T08:51:54.087Z,18.60
2023-09-19T08:54:26.855Z,18.63
2023-09-19T08:56:55.929Z,18.66
2023-09-19T08:59:23.778Z,18.67
2023-09-19T09:01:51.280Z,18.67
2023-09-19T09:04:18.716Z,18.67
2023-09-19T09:06:46.775Z,18.67
2023-09-19T09:09:13.966Z,18.66
2023-09-19T09:11:41.445Z,18.67
2023-09-19T09:14:08.607Z,18.67
2023-09-19T09:16:35.837Z,18.66
2023-09-19T09:19:06.576Z,18.69
2023-09-19T09:21:33.578Z,18.72
2023-09-19T09:24:00.585Z,18.77
2023-09-19T09:26:43.453Z,18.82
2023-09-19T09:29:10.473Z,18.88
2023-09-19T09:31:37.520Z,18.95
2023-09-19T09:34:04.763Z,19.04
2023-09-19T09:36:41.708Z,19.14
2023-09-19T09:39:08.917Z,19.27
2023-09-19T09:41:39.037Z,19.36
2023-09-19T09:44:20.051Z,19.57
2023-09-19T09:46:48.939Z,19.68
2023-09-19T09:49:24.639Z,19.72
2023-09-19T09:52:05.869Z,19.77
2023-09-19T09:54:34.178Z,19.85
2023-09-19T09:57:02.891Z,19.91
2023-09-19T09:59:55.633Z,19.96
2023-09-19T10:02:36.750Z,19.92
2023-09-19T10:05:14.549Z,19.98
2023-09-19T10:07:44.761Z,20.05
2023-09-19T10:10:13.382Z,20.10
2023-09-19T10:12:46.989Z,20.13
2023-09-19T10:15:26.657Z,20.25
2023-09-19T10:17:57.467Z,20.42
2023-09-19T10:20:25.138Z,20.55
2023-09-19T10:22:54.135Z,20.64
2023-09-19T10:25:21.803Z,20.74
2023-09-19T10:27:52.428Z,20.79
2023-09-19T10:30:22.091Z,20.82
2023-09-19T10:35:50.741Z,20.88
2023-09-19T10:38:25.598Z,21.07
2023-09-19T10:40:55.725Z,21.33
2023-09-19T10:43:50.488Z,21.25
2023-09-19T10:46:17.520Z,21.34
2023-09-19T10:48:44.656Z,21.37
2023-09-19T10:51:17.682Z,21.41
2023-09-19T10:53:53.456Z,21.43
2023-09-19T10:56:44.057Z,21.51
2023-09-19T10:59:13.503Z,21.61
2023-09-19T11:01:44.098Z,21.62
2023-09-19T11:04:39.675Z,21.70
2023-09-19T11:07:11.669Z,21.64
2023-09-19T11:09:55.704Z,21.63
2023-09-19T11:12:32.923Z,21.75
2023-09-19T11:15:01.598Z,21.76
2023-09-19T11:17:35.297Z,21.84
2023-09-19T11:20:06.552Z,21.89
2023-09-19T11:22:49.221Z,22.00
2023-09-19T11:25:31.676Z,22.17
2023-09-19T11:28:05.428Z,22.29
2023-09-19T11:30:33.610Z,22.27
2023-09-19T11:33:30.841Z,22.29
2023-09-19T11:36:05.565Z,22.22
2023-09-19T11:38:44.571Z,22.30
2023-09-19T11:41:23.511Z,22.12
2023-09-19T11:43:54.672Z,22.17
2023-09-19T11:46:24.386Z,22.11
2023-09-19T11:48:52.442Z,22.02
2023-09-19T11:51:21.549Z,22.11
2023-09-19T11:53:49.164Z,22.20
2023-09-19T11:56:21.565Z,22.10
2023-09-19T11:58:51.652Z,22.25
2023-09-19T12:01:33.251Z,22.20
2023-09-19T12:04:04.636Z,22.05
2023-09-19T12:06:32.340Z,22.10
2023-09-19T12:08:59.661Z,22.23
2023-09-19T12:11:31.309Z,22.18
2023-09-19T12:13:58.477Z,22.25
2023-09-19T12:16:26.101Z,22.29
2023-09-19T12:18:53.143Z,22.39
2023-09-19T12:21:32.941Z,22.47
2023-09-19T12:24:13.562Z,22.52
2023-09-19T12:26:45.442Z,22.61
2023-09-19T12:29:14.595Z,22.64
2023-09-19T12:31:54.817Z,22.65
2023-09-19T12:34:26.082Z,22.71
2023-09-19T12:37:08.068Z,22.60
2023-09-19T12:39:35.067Z,22.56
2023-09-19T12:42:03.111Z,22.49
2023-09-19T12:44:30.167Z,22.38
2023-09-19T12:46:57.448Z,22.53
2023-09-19T12:49:24.514Z,22.55
2023-09-19T12:51:56.510Z,22.61
2023-09-19T12:54:23.650Z,22.49
2023-09-19T12:56:50.639Z,22.62
2023-09-19T12:59:17.857Z,22.68
2023-09-19T13:01:45.193Z,22.73
2023-09-19T13:04:16.277Z,22.75
2023-09-19T13:06:43.320Z,22.71
2023-09-19T13:09:11.797Z,22.80
2023-09-19T13:11:40.395Z,22.79
2023-09-19T13:14:27.007Z,22.89
2023-09-19T13:17:02.519Z,22.96
2023-09-19T13:19:36.183Z,23.04
2023-09-19T13:22:03.402Z,23.01
2023-09-19T13:24:30.346Z,23.00
2023-09-19T13:26:57.825Z,23.01
2023-09-19T13:29:24.865Z,23.05
2023-09-19T13:31:53.496Z,23.03
2023-09-19T13:34:20.998Z,23.04
2023-09-19T13:36:48.561Z,22.97
2023-09-19T13:39:16.753Z,22.92
2023-09-19T13:41:46.506Z,22.89
2023-09-19T13:44:13.533Z,22.91
2023-09-19T13:46:40.629Z,22.96
2023-09-19T13:49:07.870Z,23.00
2023-09-19T13:51:34.820Z,22.89
2023-09-19T13:54:01.914Z,22.94
2023-09-19T13:56:28.878Z,23.02
2023-09-19T13:58:56.132Z,23.02
2023-09-19T14:01:23.441Z,23.02
2023-09-19T14:03:50.538Z,23.01
2023-09-19T14:06:19.072Z,23.04
2023-09-19T14:08:46.453Z,22.98
2023-09-19T14:11:13.402Z,22.91
2023-09-19T14:13:40.511Z,22.90
2023-09-19T14:16:10.480Z,22.97
2023-09-19T14:18:37.676Z,22.98
2023-09-19T14:21:08.067Z,23.02
2023-09-19T14:23:41.948Z,22.96
2023-09-19T14:26:09.104Z,22.91
2023-09-19T14:28:36.468Z,22.93
2023-09-19T14:31:10.307Z,22.92
2023-09-19T14:33:37.835Z,22.99
2023-09-19T14:36:09.603Z,23.05
2023-09-19T14:38:38.719Z,23.06
2023-09-19T14:41:06.967Z,23.04
2023-09-19T14:43:34.362Z,22.97
2023-09-19T14:46:07.530Z,22.96
2023-09-19T14:48:34.944Z,22.98
2023-09-19T14:51:05.991Z,23.00
2023-09-19T14:53:33.904Z,23.03
2023-09-19T14:56:05.525Z,23.04
2023-09-19T14:58:33.476Z,23.08
2023-09-19T15:01:09.189Z,23.04
2023-09-19T15:03:37.593Z,22.97
2023-09-19T15:06:06.327Z,22.92
2023-09-19T15:08:39.115Z,22.92
2023-09-19T15:11:06.786Z,22.93
2023-09-19T15:13:35.369Z,22.94
2023-09-19T15:16:03.652Z,22.90
2023-09-19T15:18:31.970Z,22.88
2023-09-19T15:21:02.384Z,22.88
2023-09-19T15:23:32.496Z,22.78
2023-09-19T15:26:00.189Z,22.74
2023-09-19T15:28:27.841Z,22.75
2023-09-19T15:31:07.432Z,22.69
2023-09-19T15:33:36.383Z,22.71
2023-09-19T15:36:08.408Z,22.66
2023-09-19T15:39:05.187Z,22.67
2023-09-19T15:41:33.368Z,22.67
2023-09-19T15:44:03.139Z,22.67
2023-09-19T15:46:33.263Z,22.62
2023-09-19T15:49:00.752Z,22.64
2023-09-19T15:51:28.629Z,22.62
2023-09-19T15:53:57.036Z,22.63
2023-09-19T15:56:25.758Z,22.53
2023-09-19T15:58:54.604Z,22.52
2023-09-19T16:01:23.780Z,22.47
2023-09-19T16:03:53.385Z,22.45
2023-09-19T16:06:23.186Z,22.40
2023-09-19T16:08:51.938Z,22.39
2023-09-19T16:11:19.892Z,22.35
2023-09-19T16:14:12.065Z,22.21
2023-09-19T16:16:40.364Z,22.13
2023-09-19T16:19:07.873Z,21.97
2023-09-19T16:21:35.470Z,21.88
2023-09-19T16:24:02.931Z,21.83
2023-09-19T16:26:30.616Z,21.75
2023-09-19T16:28:59.349Z,21.66
2023-09-19T16:31:26.571Z,21.62
2023-09-19T16:33:53.662Z,21.54
2023-09-19T16:36:21.177Z,21.44
2023-09-19T16:38:49.742Z,21.32
2023-09-19T16:41:18.854Z,21.24
2023-09-19T16:43:47.105Z,21.16
2023-09-19T16:46:16.236Z,21.09
2023-09-19T16:49:02.207Z,21.06
2023-09-19T16:51:32.256Z,20.96
2023-09-19T16:53:59.704Z,20.89
2023-09-19T16:56:27.622Z,20.83
2023-09-19T16:58:55.041Z,20.75
2023-09-19T17:01:22.928Z,20.70
2023-09-19T17:03:50.988Z,20.64
2023-09-19T17:06:19.583Z,20.59
2023-09-19T17:08:47.274Z,20.56
2023-09-19T17:11:17.119Z,20.55
2023-09-19T17:13:48.869Z,20.49
2023-09-19T17:16:19.234Z,20.44
2023-09-19T17:18:46.349Z,20.37
2023-09-19T17:21:14.243Z,20.38
2023-09-19T17:23:41.660Z,20.32
2023-09-19T17:26:15.852Z,20.36
2023-09-19T17:28:44.714Z,20.25
2023-09-19T17:31:22.203Z,20.22
2023-09-19T17:33:52.304Z,20.20
2023-09-19T17:36:24.766Z,20.20
2023-09-19T17:38:55.748Z,20.09
2023-09-19T17:41:25.105Z,20.04
2023-09-19T17:43:57.758Z,20.07
2023-09-19T17:46:27.190Z,20.07
2023-09-19T17:48:57.629Z,20.05
2023-09-19T17:51:26.863Z,20.06
2023-09-19T17:53:56.058Z,20.01
2023-09-19T17:56:23.577Z,19.99
2023-09-19T17:58:51.556Z,19.99
2023-09-19T18:01:21.119Z,19.84
2023-09-19T18:03:50.521Z,19.80
2023-09-19T18:06:20.630Z,19.62
2023-09-19T18:08:49.245Z,19.36
2023-09-19T18:11:18.399Z,19.47
2023-09-19T18:13:50.186Z,19.50
2023-09-19T18:16:18.422Z,19.43
2023-09-19T18:18:48.902Z,19.23
2023-09-19T18:21:18.787Z,19.19
2023-09-19T18:23:59.392Z,19.21
2023-09-19T18:26:27.700Z,19.10
2023-09-19T18:28:55.737Z,18.94
2023-09-19T18:31:25.908Z,18.97
2023-09-19T18:33:54.154Z,18.84
2023-09-19T18:36:22.653Z,18.86
2023-09-19T18:38:50.424Z,18.73
2023-09-19T18:41:17.969Z,18.66
2023-09-19T18:43:47.319Z,18.67
2023-09-19T18:46:15.611Z,18.55
2023-09-19T18:48:45.028Z,18.64
2023-09-19T18:51:13.080Z,18.79
2023-09-19T18:53:41.768Z,18.72
2023-09-19T18:56:11.802Z,18.62
2023-09-19T18:58:41.788Z,18.49
2023-09-19T19:01:14.167Z,18.51
2023-09-19T19:03:42.311Z,18.65
2023-09-19T19:06:13.245Z,18.73
2023-09-19T19:08:41.758Z,18.80
2023-09-19T19:11:12.650Z,18.80
2023-09-19T19:13:40.232Z,18.76
2023-09-19T19:16:10.261Z,18.74
2023-09-19T19:18:41.219Z,18.77
2023-09-19T19:21:10.599Z,18.65
2023-09-19T19:23:39.248Z,18.43
2023-09-19T19:26:09.210Z,18.36
2023-09-19T19:28:37.484Z,18.35
2023-09-19T19:31:07.760Z,18.38
2023-09-19T19:33:36.223Z,18.34
2023-09-19T19:36:12.795Z,18.29
2023-09-19T19:38:42.646Z,18.19
2023-09-19T19:41:11.741Z,18.25
2023-09-19T19:43:40.129Z,18.23
2023-09-19T19:46:09.326Z,18.27
2023-09-19T19:48:37.648Z,18.22
2023-09-19T19:51:09.877Z,18.17
2023-09-19T19:53:38.585Z,18.08
2023-09-19T19:56:07.460Z,18.04
2023-09-19T19:58:36.970Z,17.94
2023-09-19T20:01:05.670Z,17.91
2023-09-19T20:03:36.130Z,17.92
2023-09-19T20:06:04.993Z,17.87
2023-09-19T20:08:34.550Z,17.79
2023-09-19T20:11:08.467Z,17.78
2023-09-19T20:13:36.555Z,17.74
2023-09-19T20:16:04.288Z,17.75
2023-09-19T20:18:32.212Z,17.77
2023-09-19T20:21:09.580Z,17.79
2023-09-19T20:23:45.451Z,17.63
2023-09-19T20:26:13.457Z,17.37
2023-09-19T20:28:41.815Z,17.18
2023-09-19T20:31:10.970Z,17.08
2023-09-19T20:33:39.540Z,16.97
2023-09-19T20:36:08.828Z,16.74
2023-09-19T20:38:36.793Z,16.60
2023-09-19T20:41:10.967Z,16.56
2023-09-19T20:43:38.357Z,16.40
2023-09-19T20:46:05.771Z,16.33
2023-09-19T20:48:33.709Z,16.23
2023-09-19T20:51:12.685Z,16.22
2023-09-19T20:53:41.461Z,16.18
2023-09-19T20:56:09.486Z,16.20
2023-09-19T20:58:37.339Z,16.17
2023-09-19T21:01:06.227Z,16.27
2023-09-19T21:03:34.887Z,16.20
2023-09-19T21:06:08.427Z,16.01
2023-09-19T21:08:36.910Z,15.95
2023-09-19T21:11:15.142Z,15.89
2023-09-19T21:13:43.404Z,15.80
2023-09-19T21:16:12.437Z,15.77
2023-09-19T21:18:40.142Z,15.78
2023-09-19T21:21:08.816Z,15.76
2023-09-19T21:23:36.244Z,15.83
2023-09-19T21:26:04.352Z,15.84
2023-09-19T21:28:31.357Z,15.71
2023-09-19T21:31:03.846Z,15.67
2023-09-19T21:33:32.496Z,15.69
2023-09-19T21:35:59.658Z,15.70
2023-09-19T21:38:26.947Z,15.63
2023-09-19T21:40:54.065Z,15.63
2023-09-19T21:43:21.231Z,15.67
2023-09-19T21:45:48.152Z,15.63
2023-09-19T21:48:15.215Z,15.73
2023-09-19T21:50:53.170Z,15.85
2023-09-19T21:53:20.347Z,15.91
2023-09-19T21:55:47.310Z,15.98
2023-09-19T21:58:14.342Z,16.14
2023-09-19T22:00:41.529Z,16.30
2023-09-19T22:03:08.609Z,16.40
2023-09-19T22:05:36.741Z,16.49
2023-09-19T22:08:03.853Z,16.59
2023-09-19T22:10:30.971Z,16.61
2023-09-19T22:12:57.976Z,16.42
2023-09-19T22:15:25.103Z,16.31
2023-09-19T22:17:52.056Z,16.20
2023-09-19T22:20:19.225Z,16.09
2023-09-19T22:22:46.149Z,16.02
2023-09-19T22:25:13.210Z,15.94
2023-09-19T22:27:40.259Z,15.90
2023-09-19T22:33:00.989Z,15.76
2023-09-19T22:35:28.088Z,15.70
2023-09-19T22:38:08.090Z,15.62
2023-09-19T22:41:04.916Z,15.63
2023-09-19T22:43:31.892Z,15.56
2023-09-19T22:45:59.762Z,15.56
2023-09-19T22:48:26.794Z,15.53
2023-09-19T22:50:53.813Z,15.54
2023-09-19T22:53:21.020Z,15.51
2023-09-19T22:55:48.195Z,15.55
2023-09-19T22:58:15.488Z,15.61
2023-09-19T23:00:43.930Z,15.61
2023-09-19T23:03:11.341Z,15.65
2023-09-19T23:05:39.282Z,15.73
2023-09-19T23:08:15.365Z,15.80
2023-09-19T23:10:43.914Z,15.87
2023-09-19T23:13:10.847Z,15.87
2023-09-19T23:15:39.348Z,15.91
2023-09-19T23:18:06.622Z,15.90
2023-09-19T23:20:33.819Z,15.89
2023-09-19T23:23:00.943Z,15.90
2023-09-19T23:25:27.960Z,15.94
2023-09-19T23:27:56.580Z,15.89
2023-09-19T23:30:23.588Z,15.83
2023-09-19T23:32:50.636Z,15.80
2023-09-19T23:35:17.706Z,15.70
2023-09-19T23:37:44.903Z,15.65
2023-09-19T23:40:12.132Z,15.64
2023-09-19T23:42:39.932Z,15.53
2023-09-19T23:45:07.385Z,15.42
2023-09-19T23:47:34.491Z,15.33
2023-09-19T23:50:02.697Z,15.21
2023-09-19T23:52:29.852Z,15.18
2023-09-19T23:54:56.878Z,15.08
2023-09-19T23:57:23.985Z,15.04
2023-09-19T23:59:50.905Z,15.06
